Time;durP1;ratioP1;P1;durP2;ratioP2;P2;SDS_P1;SDS_P2;PMS_P1;PMS_P2;Temp;Humidity;BMP_temperature;BMP_pressure;BME280_temperature;BME280_humidity;BME280_pressure;Samples;Min_cycle;Max_cycle;Signal;HPM_P1;HPM_P2
2023/03/01 00:00:50;;;;;;;17.33;10.07;;;;;;;-5.94;100.00;102318.72;4999413;28;20482;-72
2023/03/01 00:03:23;;;;;;;14.07;9.00;;;;;;;-6.25;100.00;102320.84;5008984;28;20451;-73
2023/03/01 00:05:54;;;;;;;15.97;9.97;;;;;;;-6.31;100.00;102321.28;5015899;28;20466;-75
2023/03/01 00:08:22;;;;;;;13.70;8.80;;;;;;;-6.21;100.00;102316.06;5006968;28;20470;-76
2023/03/01 00:10:49;;;;;;;15.20;8.60;;;;;;;-6.17;100.00;102327.34;5009534;28;20455;-77
2023/03/01 00:13:17;;;;;;;18.77;9.27;;;;;;;-6.10;100.00;102316.81;4992588;28;20545;-73
2023/03/01 00:15:44;;;;;;;16.97;10.10;;;;;;;-6.25;100.00;102318.28;4988691;28;20480;-73
2023/03/01 00:18:12;;;;;;;13.30;9.07;;;;;;;-6.31;100.00;102308.59;4976731;28;20538;-74
2023/03/01 00:20:39;;;;;;;15.53;9.53;;;;;;;-6.42;100.00;102312.94;4984208;28;20481;-76
2023/03/01 00:23:11;;;;;;;15.10;8.87;;;;;;;-6.25;100.00;102309.00;4996460;28;20476;-73
2023/03/01 00:25:44;;;;;;;21.10;8.93;;;;;;;-6.11;100.00;102299.81;4995713;28;20482;-73
2023/03/01 00:28:30;;;;;;;16.70;9.70;;;;;;;-6.07;100.00;102300.91;4983263;28;20995;-73
2023/03/01 00:31:04;;;;;;;15.77;9.10;;;;;;;-6.20;100.00;102289.91;4992286;28;20467;-74
2023/03/01 00:33:32;;;;;;;13.07;8.57;;;;;;;-6.33;100.00;102295.81;5008305;28;20459;-76
2023/03/01 00:36:02;;;;;;;15.27;9.63;;;;;;;-6.25;100.00;102292.91;4994665;28;20521;-74
2023/03/01 00:38:29;;;;;;;19.10;9.43;;;;;;;-6.26;100.00;102283.50;5012402;28;20455;-74
2023/03/01 00:40:56;;;;;;;16.73;9.77;;;;;;;-6.15;100.00;102285.16;4994974;28;20462;-74
2023/03/01 00:43:25;;;;;;;17.03;9.77;;;;;;;-6.13;100.00;102278.50;5003013;28;20470;-73
2023/03/01 00:45:51;;;;;;;17.90;9.40;;;;;;;-6.39;100.00;102285.22;5009177;23;20479;-72
2023/03/01 00:48:18;;;;;;;15.70;8.77;;;;;;;-6.15;100.00;102287.69;4986399;28;20865;-74
2023/03/01 00:50:44;;;;;;;19.63;9.93;;;;;;;-6.14;100.00;102285.25;4985982;28;20464;-74
2023/03/01 00:53:11;;;;;;;13.00;8.20;;;;;;;-6.42;100.00;102285.03;4988276;28;20463;-74
2023/03/01 00:55:38;;;;;;;18.17;9.07;;;;;;;-6.53;100.00;102283.38;4980592;28;20820;-73
2023/03/01 00:58:06;;;;;;;15.30;8.67;;;;;;;-6.43;100.00;102289.97;4983198;28;20448;-73
2023/03/01 01:00:34;;;;;;;20.27;9.30;;;;;;;-6.44;100.00;102285.66;4982916;28;20547;-73
2023/03/01 01:03:00;;;;;;;17.27;8.63;;;;;;;-6.47;100.00;102276.19;4985485;28;20461;-74
2023/03/01 01:05:28;;;;;;;18.10;9.13;;;;;;;-6.33;100.00;102283.09;4985755;28;20514;-73
2023/03/01 01:07:54;;;;;;;19.47;9.23;;;;;;;-6.35;100.00;102279.59;4987461;28;21008;-73
2023/03/01 01:10:20;;;;;;;16.37;8.83;;;;;;;-6.31;100.00;102270.53;4978550;28;20507;-74
2023/03/01 01:12:51;;;;;;;16.00;9.50;;;;;;;-6.41;100.00;102279.16;4982567;28;20456;-73
2023/03/01 01:15:18;;;;;;;14.03;7.80;;;;;;;-6.29;100.00;102274.03;4981674;28;20908;-74
2023/03/01 01:17:46;;;;;;;14.33;8.57;;;;;;;-6.26;100.00;102273.34;4988309;28;21077;-74
2023/03/01 01:20:12;;;;;;;13.40;8.30;;;;;;;-6.47;100.00;102279.63;4967730;28;20548;-73
2023/03/01 01:22:39;;;;;;;18.70;9.53;;;;;;;-6.39;100.00;102271.63;4971996;28;20460;-73
2023/03/01 01:25:06;;;;;;;14.53;8.43;;;;;;;-6.30;100.00;102265.56;4970103;28;20516;-74
2023/03/01 01:27:32;;;;;;;13.77;8.90;;;;;;;-6.33;100.00;102264.44;4965396;28;20485;-74
2023/03/01 01:29:59;;;;;;;13.90;8.80;;;;;;;-6.56;100.00;102260.31;4968656;28;20543;-74
2023/03/01 01:32:25;;;;;;;16.37;9.23;;;;;;;-6.49;100.00;102270.09;4971845;28;20464;-74
2023/03/01 01:34:53;;;;;;;19.33;9.60;;;;;;;-6.39;100.00;102256.41;4982751;28;20479;-74
2023/03/01 01:37:20;;;;;;;14.93;8.10;;;;;;;-6.45;100.00;102261.94;4973195;28;20491;-74
2023/03/01 01:39:46;;;;;;;18.73;8.60;;;;;;;-6.57;100.00;102256.03;4983524;28;20547;-74
2023/03/01 01:42:16;;;;;;;15.17;8.57;;;;;;;-6.38;100.00;102255.66;4969717;28;20464;-74
2023/03/01 01:44:46;;;;;;;17.90;9.13;;;;;;;-6.33;100.00;102252.66;4970198;28;20469;-74
2023/03/01 01:47:18;;;;;;;15.67;8.87;;;;;;;-6.47;100.00;102256.78;4982649;28;20479;-74
2023/03/01 01:49:48;;;;;;;13.90;9.17;;;;;;;-6.35;100.00;102244.03;4986221;28;20893;-73
2023/03/01 01:52:20;;;;;;;17.37;8.27;;;;;;;-6.47;100.00;102244.06;4984329;28;20975;-74
2023/03/01 01:54:54;;;;;;;15.20;8.83;;;;;;;-6.54;100.00;102244.44;4967484;28;20480;-73
2023/03/01 01:57:26;;;;;;;17.30;8.77;;;;;;;-6.53;100.00;102235.16;4983088;28;20472;-74
2023/03/01 01:59:57;;;;;;;15.03;8.43;;;;;;;-6.67;100.00;102239.28;4983898;28;20528;-72
2023/03/01 02:02:24;;;;;;;13.33;8.73;;;;;;;-6.77;100.00;102237.75;4971875;28;20460;-74
2023/03/01 02:04:58;;;;;;;13.37;9.07;;;;;;;-6.71;100.00;102227.16;4983232;28;20469;-74
2023/03/01 02:07:27;;;;;;;14.67;9.00;;;;;;;-6.59;100.00;102228.00;4967783;28;20482;-74
2023/03/01 02:09:53;;;;;;;17.43;9.07;;;;;;;-6.66;100.00;102224.16;4966938;28;20467;-74
2023/03/01 02:12:22;;;;;;;15.30;9.07;;;;;;;-6.66;100.00;102214.00;4984608;28;20461;-74
2023/03/01 02:14:49;;;;;;;15.60;8.43;;;;;;;-6.61;100.00;102221.94;4984901;28;20469;-74
2023/03/01 02:17:18;;;;;;;16.57;8.57;;;;;;;-6.74;100.00;102219.31;4971330;28;20492;-73
2023/03/01 02:19:56;;;;;;;13.33;8.10;;;;;;;-6.79;100.00;102224.06;4987483;28;20921;-74
2023/03/01 02:22:28;;;;;;;17.67;9.10;;;;;;;-6.84;100.00;102222.91;4983020;28;20461;-74
2023/03/01 02:25:06;;;;;;;14.33;8.03;;;;;;;-6.72;100.00;102225.38;4967347;28;20464;-74
2023/03/01 02:27:41;;;;;;;15.57;9.03;;;;;;;-6.82;100.00;102225.50;4981399;28;20485;-74
2023/03/01 02:30:12;;;;;;;13.27;9.27;;;;;;;-6.75;100.00;102221.00;4967572;28;20468;-74
2023/03/01 02:32:41;;;;;;;19.73;10.00;;;;;;;-6.95;100.00;102219.56;4978805;28;20456;-73
2023/03/01 02:35:09;;;;;;;18.23;9.03;;;;;;;-6.90;100.00;102232.59;4983652;28;20583;-74
2023/03/01 02:37:36;;;;;;;18.37;9.47;;;;;;;-7.06;100.00;102226.44;4982083;28;20588;-74
2023/03/01 02:40:12;;;;;;;13.40;8.77;;;;;;;-6.99;100.00;102229.41;4978019;28;20453;-73
2023/03/01 02:42:46;;;;;;;13.73;7.70;;;;;;;-7.11;100.00;102227.75;4982232;28;20449;-72
2023/03/01 02:45:14;;;;;;;15.63;9.20;;;;;;;-7.00;100.00;102228.53;4984120;28;20560;-72
2023/03/01 02:47:40;;;;;;;16.23;8.70;;;;;;;-7.18;100.00;102223.03;4983645;28;20543;-72
2023/03/01 02:50:23;;;;;;;14.33;9.33;;;;;;;-7.17;100.00;102227.34;4968402;28;20463;-72
2023/03/01 02:52:56;;;;;;;17.37;9.10;;;;;;;-7.07;100.00;102221.25;4980147;28;20468;-72
2023/03/01 02:55:23;;;;;;;15.00;8.77;;;;;;;-7.08;100.00;102216.97;4982055;28;20581;-72
2023/03/01 02:57:51;;;;;;;14.90;8.57;;;;;;;-6.93;100.00;102225.66;4986672;28;21034;-73
2023/03/01 03:00:23;;;;;;;15.47;8.53;;;;;;;-6.87;100.00;102221.00;4968858;28;20452;-72
2023/03/01 03:02:51;;;;;;;18.23;9.50;;;;;;;-6.82;100.00;102228.94;4967862;28;20474;-72
2023/03/01 03:05:21;;;;;;;15.67;8.23;;;;;;;-6.94;100.00;102228.09;4984340;28;20449;-72
2023/03/01 03:07:52;;;;;;;15.93;8.87;;;;;;;-7.07;100.00;102224.69;4983868;28;20531;-72
2023/03/01 03:10:23;;;;;;;14.20;7.80;;;;;;;-7.12;100.00;102225.13;4984421;28;20830;-72
2023/03/01 03:12:51;;;;;;;13.20;8.53;;;;;;;-7.27;100.00;102223.25;4960110;28;20471;-72
2023/03/01 03:15:20;;;;;;;16.77;9.13;;;;;;;-7.35;100.00;102233.59;4981441;28;20527;-72
2023/03/01 03:17:47;;;;;;;16.07;9.37;;;;;;;-7.49;100.00;102228.44;4968319;28;20468;-72
2023/03/01 03:20:18;;;;;;;16.00;8.90;;;;;;;-7.43;100.00;102228.88;4961290;28;20533;-73
2023/03/01 03:22:45;;;;;;;13.90;8.37;;;;;;;-7.42;100.00;102227.22;4987958;28;20510;-73
2023/03/01 03:25:12;;;;;;;16.27;9.00;;;;;;;-7.41;100.00;102223.91;4982397;28;20459;-72
2023/03/01 03:27:39;;;;;;;17.87;10.63;;;;;;;-7.24;100.00;102220.94;4985414;28;20487;-72
2023/03/01 03:30:08;;;;;;;15.87;9.43;;;;;;;-7.10;100.00;102218.53;4987520;28;20510;-72
2023/03/01 03:32:36;;;;;;;15.53;9.70;;;;;;;-7.10;100.00;102214.31;4987923;28;20999;-72
2023/03/01 03:35:08;;;;;;;14.53;9.40;;;;;;;-7.43;100.00;102221.25;4986994;28;20554;-72
2023/03/01 03:40:19;;;;;;;22.77;10.23;;;;;;;-7.28;100.00;102215.53;4967697;28;20534;-72
2023/03/01 03:42:45;;;;;;;12.53;8.23;;;;;;;-7.33;100.00;102220.28;4983677;28;20632;-72
2023/03/01 03:45:12;;;;;;;15.60;8.90;;;;;;;-7.38;100.00;102211.47;4981458;28;20581;-72
2023/03/01 03:47:39;;;;;;;16.23;9.27;;;;;;;-7.39;100.00;102212.22;4979223;28;20652;-72
2023/03/01 03:50:06;;;;;;;16.90;8.77;;;;;;;-7.47;100.00;102211.69;4982890;28;20468;-72
2023/03/01 03:52:33;;;;;;;16.83;8.13;;;;;;;-7.46;100.00;102203.31;4988070;28;20460;-72
2023/03/01 03:54:59;;;;;;;15.40;9.00;;;;;;;-7.39;100.00;102209.69;4988120;28;20500;-72
2023/03/01 03:57:25;;;;;;;16.30;9.77;;;;;;;-7.34;100.00;102212.56;4982110;28;20480;-72
2023/03/01 03:59:52;;;;;;;22.43;9.23;;;;;;;-7.22;100.00;102210.03;4986708;28;20983;-72
2023/03/01 04:02:24;;;;;;;13.10;8.57;;;;;;;-7.17;100.00;102206.19;4986887;28;20491;-72
2023/03/01 04:04:52;;;;;;;17.70;9.40;;;;;;;-7.22;100.00;102210.91;4987255;28;20692;-72
2023/03/01 04:07:18;;;;;;;18.53;8.83;;;;;;;-7.44;100.00;102211.00;4984974;28;20844;-72
2023/03/01 04:09:45;;;;;;;13.90;7.63;;;;;;;-7.33;100.00;102207.63;4984896;28;20460;-72
2023/03/01 04:12:20;;;;;;;16.10;8.73;;;;;;;-7.35;100.00;102208.25;4988060;28;20457;-72
2023/03/01 04:14:46;;;;;;;14.83;8.70;;;;;;;-7.59;100.00;102207.41;4986533;28;20535;-72
2023/03/01 04:17:13;;;;;;;15.50;9.87;;;;;;;-7.37;100.00;102205.59;4988359;28;20564;-72
2023/03/01 04:19:39;;;;;;;18.67;10.03;;;;;;;-7.26;100.00;102211.47;4985994;28;20712;-72
2023/03/01 04:22:09;;;;;;;16.93;8.37;;;;;;;-7.31;100.00;102205.19;4983466;28;20607;-72
2023/03/01 04:24:36;;;;;;;15.30;8.67;;;;;;;-7.37;100.00;102210.69;4985665;28;20582;-73
2023/03/01 04:27:02;;;;;;;16.90;8.47;;;;;;;-7.21;100.00;102200.00;4987555;28;20479;-72
2023/03/01 04:29:29;;;;;;;14.20;8.10;;;;;;;-7.25;100.00;102200.53;4986069;28;20547;-72
2023/03/01 04:31:56;;;;;;;16.27;8.33;;;;;;;-7.33;100.00;102194.06;4982644;28;20844;-72
2023/03/01 04:34:22;;;;;;;20.77;9.37;;;;;;;-7.31;100.00;102192.53;4971338;28;20456;-72
2023/03/01 04:36:49;;;;;;;15.70;9.70;;;;;;;-7.39;100.00;102198.69;4990113;28;20483;-72
2023/03/01 04:39:17;;;;;;;14.37;8.97;;;;;;;-7.40;100.00;102189.31;4986685;28;20795;-72
2023/03/01 04:41:43;;;;;;;15.97;9.00;;;;;;;-7.36;100.00;102191.31;4980574;28;20455;-72
2023/03/01 04:44:11;;;;;;;13.43;7.87;;;;;;;-7.25;100.00;102195.47;4989546;28;20478;-72
2023/03/01 04:46:37;;;;;;;16.23;8.13;;;;;;;-7.40;100.00;102191.84;4970859;28;21038;-73
2023/03/01 04:49:04;;;;;;;15.83;8.37;;;;;;;-7.42;100.00;102197.69;4989709;28;21032;-73
2023/03/01 04:51:32;;;;;;;18.37;8.40;;;;;;;-7.29;100.00;102196.03;4986592;28;20539;-72
2023/03/01 04:54:00;;;;;;;19.73;10.00;;;;;;;-7.54;100.00;102198.47;4969373;28;20457;-72
2023/03/01 04:56:28;;;;;;;22.17;10.87;;;;;;;-7.52;100.00;102191.88;4980757;28;20984;-72
2023/03/01 04:58:55;;;;;;;20.53;9.97;;;;;;;-7.54;100.00;102193.41;4985923;28;20467;-72
2023/03/01 05:01:21;;;;;;;17.27;7.83;;;;;;;-7.71;100.00;102189.63;4980572;28;20597;-72
2023/03/01 05:03:49;;;;;;;15.83;8.70;;;;;;;-7.91;100.00;102185.66;4981427;28;21023;-72
2023/03/01 05:06:17;;;;;;;14.70;8.70;;;;;;;-7.73;100.00;102188.66;4983166;28;20984;-72
2023/03/01 05:08:44;;;;;;;15.60;9.27;;;;;;;-7.68;100.00;102184.81;4984333;28;20467;-72
2023/03/01 05:11:11;;;;;;;17.00;8.50;;;;;;;-7.61;100.00;102177.75;4969904;28;20464;-72
2023/03/01 05:13:40;;;;;;;15.17;8.03;;;;;;;-7.52;100.00;102177.53;4984829;28;20570;-72
2023/03/01 05:16:10;;;;;;;13.50;8.43;;;;;;;-7.54;100.00;102176.53;4971120;28;21009;-72
2023/03/01 05:18:38;;;;;;;16.77;8.73;;;;;;;-7.66;100.00;102181.59;4989534;28;20460;-72
2023/03/01 05:21:07;;;;;;;14.80;8.47;;;;;;;-7.64;100.00;102171.59;4982199;28;20582;-72
2023/03/01 05:23:35;;;;;;;14.10;8.47;;;;;;;-7.62;100.00;102175.09;4988245;28;20886;-72
2023/03/01 05:26:03;;;;;;;13.70;8.13;;;;;;;-7.70;100.00;102179.63;4979930;28;20476;-72
2023/03/01 05:28:30;;;;;;;17.40;8.77;;;;;;;-7.64;100.00;102184.25;4970312;28;20985;-72
2023/03/01 05:30:59;;;;;;;16.07;8.37;;;;;;;-7.67;100.00;102181.47;4984928;28;20456;-73
2023/03/01 05:33:26;;;;;;;12.77;7.87;;;;;;;-7.63;100.00;102183.50;4987951;28;20526;-72
2023/03/01 05:36:01;;;;;;;17.77;8.33;;;;;;;-7.71;100.00;102184.56;4989391;28;20507;-72
2023/03/01 05:38:27;;;;;;;15.00;8.00;;;;;;;-7.69;100.00;102183.03;4969820;28;20461;-72
2023/03/01 05:40:53;;;;;;;18.23;8.33;;;;;;;-7.80;100.00;102188.19;4987408;28;20560;-72
2023/03/01 05:43:20;;;;;;;15.27;8.00;;;;;;;-7.70;100.00;102187.22;4987900;28;20542;-72
2023/03/01 05:45:47;;;;;;;17.33;9.03;;;;;;;-7.66;100.00;102190.84;4982813;28;20485;-72
2023/03/01 05:48:15;;;;;;;15.27;9.30;;;;;;;-7.68;100.00;102188.22;4980951;28;20995;-72
2023/03/01 05:50:43;;;;;;;15.57;8.53;;;;;;;-7.86;100.00;102190.28;4984556;28;20957;-73
2023/03/01 05:53:12;;;;;;;12.90;8.63;;;;;;;-8.00;100.00;102190.94;4985773;28;20954;-73
2023/03/01 05:55:39;;;;;;;12.90;8.33;;;;;;;-7.75;100.00;102197.78;4982246;28;20479;-73
2023/03/01 05:58:08;;;;;;;15.13;8.90;;;;;;;-7.64;100.00;102192.72;4983707;28;20560;-72
2023/03/01 06:00:34;;;;;;;16.37;8.93;;;;;;;-7.68;100.00;102190.75;4980728;28;20571;-72
2023/03/01 06:03:01;;;;;;;18.50;9.73;;;;;;;-7.56;100.00;102184.78;4981870;28;20472;-73
2023/03/01 06:05:30;;;;;;;18.73;8.17;;;;;;;-7.66;100.00;102174.00;4988935;28;20704;-73
2023/03/01 06:07:59;;;;;;;15.77;9.00;;;;;;;-7.78;100.00;102177.31;4987375;28;20472;-71
2023/03/01 06:10:26;;;;;;;15.57;8.63;;;;;;;-7.81;100.00;102180.47;4981625;28;20562;-72
2023/03/01 06:12:52;;;;;;;14.63;8.13;;;;;;;-7.69;100.00;102177.97;4978209;28;20525;-72
2023/03/01 06:15:19;;;;;;;19.30;10.60;;;;;;;-7.66;100.00;102176.53;4985545;28;20463;-72
2023/03/01 06:17:46;;;;;;;19.87;9.73;;;;;;;-7.86;100.00;102175.09;4986680;28;20483;-72
2023/03/01 06:20:16;;;;;;;21.13;10.17;;;;;;;-7.91;100.00;102173.88;4986297;28;20460;-72
2023/03/01 06:22:44;;;;;;;20.47;10.77;;;;;;;-7.61;100.00;102176.88;4985553;28;20448;-73
2023/03/01 06:25:12;;;;;;;20.00;10.90;;;;;;;-7.55;100.00;102166.28;4985416;28;20528;-72
2023/03/01 06:27:39;;;;;;;18.17;9.63;;;;;;;-7.47;100.00;102168.59;4987014;28;20893;-72
2023/03/01 06:30:07;;;;;;;22.57;10.80;;;;;;;-7.59;100.00;102170.25;4987841;28;20485;-73
2023/03/01 06:32:34;;;;;;;24.87;11.80;;;;;;;-7.33;100.00;102176.31;5000943;28;20475;-71
2023/03/01 06:35:00;;;;;;;17.60;9.40;;;;;;;-7.08;100.00;102168.78;4981913;28;21037;-74
2023/03/01 06:37:27;;;;;;;20.27;10.13;;;;;;;-7.10;100.00;102178.81;4982817;28;21043;-74
2023/03/01 06:39:55;;;;;;;20.27;10.47;;;;;;;-7.27;100.00;102176.75;4977274;28;20484;-74
2023/03/01 06:42:21;;;;;;;19.70;10.47;;;;;;;-7.19;100.00;102178.19;4992421;28;20463;-74
2023/03/01 06:44:47;;;;;;;18.33;10.77;;;;;;;-6.98;100.00;102177.91;4989013;28;20452;-74
2023/03/01 06:47:14;;;;;;;19.20;11.13;;;;;;;-6.89;100.00;102183.66;5011089;23;20514;-74
2023/03/01 06:49:41;;;;;;;16.77;9.70;;;;;;;-6.90;100.00;102175.13;5011368;28;20851;-74
2023/03/01 06:52:08;;;;;;;21.40;11.30;;;;;;;-6.73;100.00;102178.84;5011208;28;20513;-74
2023/03/01 06:54:34;;;;;;;19.37;11.57;;;;;;;-6.74;100.00;102171.13;4994016;28;20513;-74
2023/03/01 06:57:02;;;;;;;18.97;11.87;;;;;;;-6.61;100.00;102170.28;5011069;28;20471;-75
2023/03/01 06:59:29;;;;;;;25.03;11.50;;;;;;;-6.57;100.00;102175.69;4993207;28;20455;-74
2023/03/01 07:01:56;;;;;;;21.10;12.63;;;;;;;-6.52;100.00;102170.94;5010015;28;20451;-74
2023/03/01 07:04:22;;;;;;;24.30;13.63;;;;;;;-6.62;100.00;102171.09;5008041;28;20518;-74
2023/03/01 07:06:54;;;;;;;17.67;11.70;;;;;;;-6.54;100.00;102172.50;5010505;28;20479;-74
2023/03/01 07:09:21;;;;;;;22.17;12.90;;;;;;;-6.32;100.00;102174.81;4993084;28;20991;-74
2023/03/01 07:11:48;;;;;;;26.10;15.57;;;;;;;-6.53;100.00;102177.66;4989593;28;20987;-74
2023/03/01 07:14:17;;;;;;;27.17;14.47;;;;;;;-6.61;100.00;102176.28;4986800;28;20472;-74
2023/03/01 07:16:43;;;;;;;27.70;14.13;;;;;;;-6.61;100.00;102172.84;5009172;28;20598;-74
2023/03/01 07:19:10;;;;;;;24.83;14.07;;;;;;;-6.54;100.00;102169.97;4988197;28;20462;-74
2023/03/01 07:21:38;;;;;;;24.47;14.07;;;;;;;-6.22;100.00;102171.25;4993211;28;20857;-74
2023/03/01 07:24:05;;;;;;;24.47;14.60;;;;;;;-6.21;100.00;102173.00;5005220;28;20451;-74
2023/03/01 07:26:32;;;;;;;23.70;13.77;;;;;;;-6.14;100.00;102185.31;4988696;28;20511;-74
2023/03/01 07:28:59;;;;;;;29.43;16.07;;;;;;;-6.14;100.00;102185.31;5004129;28;20447;-74
2023/03/01 07:31:28;;;;;;;25.73;15.27;;;;;;;-6.14;100.00;102196.38;5010029;28;20454;-74
2023/03/01 07:33:54;;;;;;;33.77;16.37;;;;;;;-6.09;100.00;102186.50;5002838;28;20853;-74
2023/03/01 07:36:21;;;;;;;29.53;15.93;;;;;;;-6.02;100.00;102191.22;5006226;28;20808;-74
2023/03/01 07:38:47;;;;;;;66.83;27.10;;;;;;;-5.93;100.00;102190.91;5006240;28;20887;-74
2023/03/01 07:41:14;;;;;;;39.03;16.23;;;;;;;-5.77;100.00;102185.16;4999494;28;20450;-74
2023/03/01 07:43:41;;;;;;;32.60;18.20;;;;;;;-5.67;100.00;102186.66;5004471;28;20470;-74
2023/03/01 07:46:07;;;;;;;33.87;18.27;;;;;;;-5.62;100.00;102198.00;5008921;28;20475;-74
2023/03/01 07:48:36;;;;;;;36.13;18.23;;;;;;;-5.53;100.00;102183.34;5009247;28;20802;-74
2023/03/01 07:51:04;;;;;;;32.93;18.70;;;;;;;-5.42;100.00;102195.06;4990462;28;20455;-74
2023/03/01 07:53:31;;;;;;;35.10;19.80;;;;;;;-5.28;100.00;102185.78;4991864;28;20462;-74
2023/03/01 07:56:02;;;;;;;35.77;20.57;;;;;;;-5.20;100.00;102189.69;4979406;28;20498;-74
2023/03/01 07:58:29;;;;;;;37.60;19.63;;;;;;;-5.05;100.00;102187.22;4995735;28;21026;-74
2023/03/01 08:00:55;;;;;;;33.80;18.27;;;;;;;-4.99;100.00;102190.16;5006492;28;20483;-74
2023/03/01 08:03:21;;;;;;;34.30;18.43;;;;;;;-4.89;100.00;102186.53;5001773;28;20443;-74
2023/03/01 08:05:49;;;;;;;34.10;18.30;;;;;;;-4.79;100.00;102182.84;5005435;28;20455;-74
2023/03/01 08:08:15;;;;;;;36.10;18.97;;;;;;;-4.69;100.00;102182.63;5004188;28;20472;-74
2023/03/01 08:10:42;;;;;;;38.30;19.33;;;;;;;-4.57;100.00;102179.97;4989861;28;20547;-74
2023/03/01 08:13:09;;;;;;;34.73;18.50;;;;;;;-4.45;100.00;102184.91;4986192;28;20459;-74
2023/03/01 08:15:35;;;;;;;32.83;19.07;;;;;;;-4.29;100.00;102179.03;5005091;28;20974;-74
2023/03/01 08:18:01;;;;;;;41.77;20.63;;;;;;;-4.18;100.00;102181.44;5007603;28;20842;-74
2023/03/01 08:20:28;;;;;;;38.80;20.33;;;;;;;-4.03;100.00;102183.13;4989080;28;20462;-74
2023/03/01 08:22:56;;;;;;;38.60;20.13;;;;;;;-3.91;100.00;102177.88;4999153;28;20456;-74
2023/03/01 08:25:22;;;;;;;41.53;19.90;;;;;;;-3.80;100.00;102184.44;4998110;28;20469;-74
2023/03/01 08:27:49;;;;;;;39.60;20.83;;;;;;;-3.65;100.00;102184.47;5005401;28;20491;-74
2023/03/01 08:30:16;;;;;;;43.17;23.30;;;;;;;-3.43;100.00;102177.22;5000156;28;20463;-74
2023/03/01 08:32:42;;;;;;;44.47;22.50;;;;;;;-3.25;100.00;102172.25;5004342;28;20950;-74
2023/03/01 08:35:09;;;;;;;41.63;21.93;;;;;;;-3.08;100.00;102168.09;5008361;28;20457;-74
2023/03/01 08:37:35;;;;;;;54.20;24.07;;;;;;;-2.96;100.00;102167.84;4992133;28;20489;-74
2023/03/01 08:40:10;;;;;;;48.37;22.90;;;;;;;-2.81;100.00;102167.81;4986882;28;20518;-74
2023/03/01 08:42:37;;;;;;;51.83;27.10;;;;;;;-2.72;100.00;102167.41;5005647;28;20516;-74
2023/03/01 08:45:04;;;;;;;57.70;26.90;;;;;;;-2.60;100.00;102162.94;5007006;28;20966;-74
2023/03/01 08:47:31;;;;;;;46.57;24.93;;;;;;;-2.43;100.00;102162.94;5008081;28;20938;-74
2023/03/01 08:49:57;;;;;;;45.30;22.57;;;;;;;-2.37;100.00;102159.03;5006863;28;20461;-74
2023/03/01 08:52:24;;;;;;;57.47;29.03;;;;;;;-2.20;100.00;102167.56;5012099;28;20455;-74
2023/03/01 08:54:50;;;;;;;45.10;23.33;;;;;;;-2.04;100.00;102161.53;5011850;28;20193;-74
2023/03/01 08:57:18;;;;;;;52.23;24.17;;;;;;;-1.95;100.00;102169.66;5006025;28;20228;-74
2023/03/01 08:59:45;;;;;;;49.63;26.30;;;;;;;-1.74;100.00;102169.84;4990592;28;20565;-74
2023/03/01 09:02:18;;;;;;;55.43;27.17;;;;;;;-1.59;100.00;102166.25;5009783;28;20294;-74
2023/03/01 09:04:45;;;;;;;50.63;26.53;;;;;;;-1.45;100.00;102167.78;5005125;28;20200;-74
2023/03/01 09:07:11;;;;;;;51.03;25.37;;;;;;;-1.36;100.00;102172.47;5007823;28;20596;-74
2023/03/01 09:09:38;;;;;;;42.47;23.07;;;;;;;-1.20;100.00;102169.81;4993442;28;20508;-73
2023/03/01 09:12:05;;;;;;;50.57;25.30;;;;;;;-1.15;100.00;102173.47;5011025;28;20204;-74
2023/03/01 09:14:33;;;;;;;49.23;24.57;;;;;;;-0.99;100.00;102167.38;4988830;28;20197;-73
2023/03/01 09:17:02;;;;;;;51.03;26.77;;;;;;;-0.91;100.00;102174.56;4991415;28;20601;-74
2023/03/01 09:19:29;;;;;;;60.57;29.23;;;;;;;-0.90;100.00;102177.16;5009430;28;20577;-73
2023/03/01 09:21:55;;;;;;;58.20;27.27;;;;;;;-0.79;100.00;102170.00;4993878;28;20691;-73
2023/03/01 09:24:24;;;;;;;56.50;27.37;;;;;;;-0.67;100.00;102172.19;4986302;28;20285;-73
2023/03/01 09:26:54;;;;;;;64.77;30.07;;;;;;;-0.62;100.00;102169.03;5004042;28;20308;-73
2023/03/01 09:29:20;;;;;;;57.30;25.60;;;;;;;-0.51;100.00;102171.19;5008131;28;20207;-74
2023/03/01 09:31:48;;;;;;;67.03;27.80;;;;;;;-0.40;100.00;102165.72;5005360;28;20422;-74
2023/03/01 09:34:15;;;;;;;51.50;25.33;;;;;;;-0.30;100.00;102174.72;5008160;28;20211;-73
2023/03/01 09:36:42;;;;;;;56.00;26.37;;;;;;;-0.21;100.00;102171.66;5003374;28;20217;-73
2023/03/01 09:39:09;;;;;;;59.67;26.00;;;;;;;-0.10;100.00;102175.56;5004086;28;20188;-74
2023/03/01 09:41:47;;;;;;;56.87;24.93;;;;;;;-0.02;100.00;102179.31;5007862;28;20193;-73
2023/03/01 09:44:24;;;;;;;53.17;23.77;;;;;;;0.10;100.00;102178.94;4990022;28;20295;-74
2023/03/01 09:46:52;;;;;;;49.00;22.67;;;;;;;0.21;100.00;102176.81;5006665;28;20224;-73
2023/03/01 09:49:22;;;;;;;43.43;22.73;;;;;;;0.27;100.00;102173.66;4987032;28;20197;-74
2023/03/01 09:51:57;;;;;;;48.57;22.33;;;;;;;0.38;100.00;102180.06;5009093;28;20654;-74
2023/03/01 09:54:23;;;;;;;45.70;21.03;;;;;;;0.45;100.00;102182.06;5007510;28;20197;-74
2023/03/01 09:57:02;;;;;;;44.37;18.67;;;;;;;0.52;100.00;102178.94;4988963;28;20272;-73
2023/03/01 09:59:33;;;;;;;29.63;16.17;;;;;;;0.66;100.00;102176.91;5006460;28;20291;-73
2023/03/01 10:02:15;;;;;;;37.73;17.27;;;;;;;0.73;100.00;102180.59;4998256;28;20201;-73
2023/03/01 10:04:47;;;;;;;33.60;17.93;;;;;;;0.83;100.00;102180.16;5004966;28;20577;-73
2023/03/01 10:07:26;;;;;;;29.70;16.33;;;;;;;0.92;100.00;102174.50;5004576;28;20246;-74
2023/03/01 10:09:53;;;;;;;20.53;12.07;;;;;;;0.95;100.00;102172.06;5005220;28;20184;-73
2023/03/01 10:12:23;;;;;;;22.00;12.07;;;;;;;1.00;100.00;102177.34;5007601;28;20193;-73
2023/03/01 10:14:58;;;;;;;20.47;11.23;;;;;;;1.04;100.00;102177.53;5003670;28;20196;-74
2023/03/01 10:17:33;;;;;;;21.57;10.47;;;;;;;1.07;100.00;102162.25;5009251;28;20743;-73
2023/03/01 10:20:16;;;;;;;16.93;8.43;;;;;;;1.06;100.00;102168.19;4988946;28;20282;-74
2023/03/01 10:22:46;;;;;;;13.60;8.50;;;;;;;1.23;100.00;102171.38;5000174;28;20238;-74
2023/03/01 10:25:16;;;;;;;18.30;9.60;;;;;;;1.31;100.00;102172.53;4999433;28;20197;-73
2023/03/01 10:27:51;;;;;;;16.80;8.40;;;;;;;1.50;100.00;102170.63;5006964;28;20204;-74
2023/03/01 10:30:22;;;;;;;19.27;9.13;;;;;;;1.59;100.00;102160.66;5003166;28;20571;-74
2023/03/01 10:32:53;;;;;;;18.80;8.63;;;;;;;1.56;100.00;102160.56;4988606;28;20576;-74
2023/03/01 10:35:22;;;;;;;14.17;8.17;;;;;;;1.67;100.00;102160.94;5005017;28;20560;-74
2023/03/01 10:38:03;;;;;;;16.57;9.23;;;;;;;1.66;100.00;102159.19;5002985;28;20279;-74
2023/03/01 10:40:29;;;;;;;16.33;8.50;;;;;;;1.73;100.00;102155.16;4983224;28;20284;-74
2023/03/01 10:42:59;;;;;;;15.30;8.17;;;;;;;1.94;100.00;102152.44;5002414;28;20200;-73
2023/03/01 10:45:34;;;;;;;16.30;9.17;;;;;;;1.92;100.00;102149.81;5006395;28;20709;-74
2023/03/01 10:48:14;;;;;;;18.00;9.10;;;;;;;1.97;100.00;102147.38;5005429;28;20653;-74
2023/03/01 10:50:42;;;;;;;16.67;7.77;;;;;;;2.10;100.00;102154.69;5008294;28;20283;-74
2023/03/01 10:53:23;;;;;;;14.30;7.43;;;;;;;2.06;100.00;102150.28;5006033;28;20564;-74
2023/03/01 10:55:58;;;;;;;15.23;8.77;;;;;;;2.13;100.00;102149.66;5007001;28;20204;-74
2023/03/01 10:58:24;;;;;;;14.73;8.10;;;;;;;2.15;100.00;102147.13;4985348;28;20213;-74
2023/03/01 11:00:53;;;;;;;9.93;7.43;;;;;;;2.28;100.00;102146.69;5006177;28;20691;-74
2023/03/01 11:03:24;;;;;;;14.53;7.30;;;;;;;2.32;100.00;102156.25;4987101;28;20219;-74
2023/03/01 11:05:59;;;;;;;21.53;12.53;;;;;;;2.28;100.00;102147.56;5003552;28;20196;-73
2023/03/01 11:08:41;;;;;;;14.20;7.47;;;;;;;2.31;97.04;102144.22;4986121;28;20246;-73
2023/03/01 11:11:30;;;;;;;12.50;6.87;;;;;;;2.41;94.68;102138.53;5002541;28;20207;-73
2023/03/01 11:13:59;;;;;;;17.37;8.07;;;;;;;2.42;95.65;102142.84;5005333;28;20266;-73
2023/03/01 11:16:31;;;;;;;9.33;6.00;;;;;;;2.53;94.27;102126.88;5003320;28;20536;-73